Time;durP1;ratioP1;P1;durP2;ratioP2;P2;SDS_P1;SDS_P2;PMS_P1;PMS_P2;Temp;Humidity;BMP_temperature;BMP_pressure;BME280_temperature;BME280_humidity;BME280_pressure;Samples;Min_cycle;Max_cycle;Signal;HPM_P1;HPM_P2
2021/03/16 00:02:05;;;;;;;7.03;3.33;;;6.60;99.90;;;;;;5088518;28;20398;-49
2021/03/16 00:04:30;;;;;;;10.32;3.65;;;5.50;99.90;;;;;;5090852;28;20418;-49
2021/03/16 00:06:56;;;;;;;11.23;3.77;;;6.20;99.90;;;;;;5089339;28;20622;-54
2021/03/16 00:09:22;;;;;;;13.20;4.30;;;5.50;99.90;;;;;;5090313;28;20405;-50
2021/03/16 00:11:48;;;;;;;12.97;3.90;;;5.40;99.90;;;;;;5090301;28;20515;-50
2021/03/16 00:14:13;;;;;;;16.27;5.30;;;5.40;99.90;;;;;;5089223;28;20638;-49
2021/03/16 00:16:39;;;;;;;18.42;4.72;;;5.50;99.90;;;;;;5090691;28;20436;-48
2021/03/16 00:19:04;;;;;;;8.40;2.80;;;5.50;99.90;;;;;;5090325;28;20520;-49
2021/03/16 00:21:30;;;;;;;10.80;3.70;;;5.50;99.90;;;;;;5089453;28;20477;-46
2021/03/16 00:23:56;;;;;;;15.40;4.90;;;5.40;99.90;;;;;;5090173;28;20402;-54
2021/03/16 00:26:21;;;;;;;12.75;2.90;;;5.40;99.90;;;;;;5089507;28;20394;-48
2021/03/16 00:28:47;;;;;;;7.33;2.60;;;6.40;99.90;;;;;;5090980;28;20390;-48
2021/03/16 00:31:13;;;;;;;9.03;3.00;;;5.30;99.90;;;;;;5088028;28;20424;-48
2021/03/16 00:33:38;;;;;;;8.70;2.40;;;5.30;99.90;;;;;;5090073;28;20402;-49
2021/03/16 00:36:05;;;;;;;6.97;2.70;;;5.20;99.90;;;;;;5070589;28;20406;-47
2021/03/16 00:38:30;;;;;;;11.63;4.53;;;5.20;99.90;;;;;;5088818;28;20397;-47
2021/03/16 00:40:56;;;;;;;8.43;2.67;;;5.20;99.90;;;;;;5089878;28;20877;-48
2021/03/16 00:43:22;;;;;;;9.60;3.00;;;5.20;99.90;;;;;;5089777;28;20386;-53
2021/03/16 00:45:47;;;;;;;6.65;2.63;;;5.10;99.90;;;;;;5090036;28;20397;-48
2021/03/16 00:48:19;;;;;;;7.87;3.17;;;6.60;99.90;;;;;;5088375;28;20485;-48
2021/03/16 00:50:45;;;;;;;13.40;3.90;;;5.00;99.90;;;;;;5089800;28;20381;-49
2021/03/16 00:53:11;;;;;;;10.25;3.67;;;5.00;99.90;;;;;;5088555;28;20499;-49
2021/03/16 00:55:37;;;;;;;11.98;3.58;;;4.90;99.90;;;;;;5090359;28;20390;-48
2021/03/16 00:58:04;;;;;;;9.20;2.90;;;5.00;99.90;;;;;;5089311;28;20390;-48
2021/03/16 01:00:30;;;;;;;8.07;3.37;;;4.90;99.90;;;;;;5089617;28;20443;-48
2021/03/16 01:02:56;;;;;;;7.25;3.22;;;4.70;99.90;;;;;;5088504;28;20391;-54
2021/03/16 01:05:22;;;;;;;10.45;4.70;;;4.70;99.90;;;;;;5089232;28;20479;-48
2021/03/16 01:07:48;;;;;;;16.52;4.93;;;4.70;99.90;;;;;;5088151;28;20879;-48
2021/03/16 01:10:17;;;;;;;11.60;3.40;;;4.70;99.90;;;;;;5087992;28;20397;-47
2021/03/16 01:12:43;;;;;;;7.40;3.22;;;4.60;99.90;;;;;;5089881;28;20957;-47
2021/03/16 01:15:10;;;;;;;8.23;3.03;;;4.60;99.90;;;;;;5089089;28;20489;-48
2021/03/16 01:17:36;;;;;;;9.83;3.30;;;4.50;99.90;;;;;;5089442;28;20390;-48
2021/03/16 01:20:09;;;;;;;7.85;3.88;;;4.50;99.90;;;;;;5087943;28;20440;-48
2021/03/16 01:22:34;;;;;;;9.70;4.00;;;4.60;99.90;;;;;;5088994;28;20386;-48
2021/03/16 01:25:00;;;;;;;6.53;3.03;;;4.60;99.90;;;;;;5087595;28;20414;-48
2021/03/16 01:27:26;;;;;;;9.35;3.70;;;4.60;99.90;;;;;;5089510;28;20916;-48
2021/03/16 01:29:51;;;;;;;10.47;3.20;;;5.50;99.90;;;;;;5088605;28;20393;-48
2021/03/16 01:32:17;;;;;;;7.97;3.00;;;4.60;99.90;;;;;;5088864;28;20465;-48
2021/03/16 01:34:42;;;;;;;7.93;3.40;;;4.70;99.90;;;;;;5088221;28;20396;-48
2021/03/16 01:37:08;;;;;;;6.80;2.90;;;5.60;99.90;;;;;;5088913;28;20847;-48
2021/03/16 01:39:34;;;;;;;6.38;2.60;;;4.70;99.90;;;;;;5088293;28;20390;-48
2021/03/16 01:42:00;;;;;;;7.00;2.80;;;5.70;99.90;;;;;;5088886;28;20390;-48
2021/03/16 01:44:26;;;;;;;11.00;3.30;;;4.70;99.90;;;;;;5071594;28;20409;-48
2021/03/16 01:46:51;;;;;;;7.60;2.73;;;4.70;99.90;;;;;;5088446;28;20816;-48
2021/03/16 01:49:17;;;;;;;9.20;3.00;;;4.80;99.90;;;;;;5087622;28;20992;-48
2021/03/16 01:51:43;;;;;;;9.27;2.90;;;4.60;99.90;;;;;;5092471;28;20429;-48
2021/03/16 01:54:09;;;;;;;7.75;3.28;;;4.90;99.90;;;;;;5090948;28;20462;-48
2021/03/16 01:56:38;;;;;;;7.65;2.70;;;4.60;99.90;;;;;;5093757;28;20489;-48
2021/03/16 01:59:06;;;;;;;7.38;3.00;;;4.60;99.90;;;;;;5091634;28;20403;-48
2021/03/16 02:01:33;;;;;;;7.67;2.90;;;4.50;99.90;;;;;;5093268;28;20895;-48
2021/03/16 02:03:59;;;;;;;7.63;3.00;;;4.50;99.90;;;;;;5089817;28;20437;-51
2021/03/16 02:06:41;;;;;;;7.37;3.10;;;4.60;99.90;;;;;;5093243;28;20424;-49
2021/03/16 02:09:18;;;;;;;6.43;2.50;;;4.60;99.90;;;;;;5090982;28;20394;-47
2021/03/16 02:12:06;;;;;;;8.00;2.83;;;4.60;99.90;;;;;;5093001;28;20447;-51
2021/03/16 02:14:36;;;;;;;7.80;2.80;;;4.50;99.90;;;;;;5091847;28;20489;-49
2021/03/16 02:17:14;;;;;;;7.65;2.80;;;4.80;99.90;;;;;;5092863;28;20374;-48
2021/03/16 02:20:08;;;;;;;10.73;3.17;;;4.50;99.90;;;;;;5092364;28;20401;-49
2021/03/16 02:22:36;;;;;;;8.23;3.03;;;4.60;99.90;;;;;;5090144;28;20384;-47
2021/03/16 02:25:11;;;;;;;10.20;3.40;;;4.50;99.90;;;;;;5091346;28;20409;-49
2021/03/16 02:27:55;;;;;;;10.77;3.42;;;4.50;99.90;;;;;;5092974;28;20492;-48
2021/03/16 02:30:21;;;;;;;7.18;2.80;;;4.50;99.90;;;;;;5090910;28;20405;-48
2021/03/16 02:32:48;;;;;;;11.43;3.40;;;4.50;99.90;;;;;;5073524;28;20462;-48
2021/03/16 02:35:18;;;;;;;6.82;2.80;;;4.50;99.90;;;;;;5092247;28;20381;-47
2021/03/16 02:37:45;;;;;;;8.45;3.10;;;4.50;99.90;;;;;;5091662;28;20417;-47
2021/03/16 02:40:13;;;;;;;12.25;3.60;;;4.40;99.90;;;;;;5091566;28;20392;-48
2021/03/16 02:42:40;;;;;;;9.77;3.50;;;4.50;99.90;;;;;;5091355;28;20430;-50
2021/03/16 02:45:09;;;;;;;8.55;3.22;;;5.30;99.90;;;;;;5090927;28;20915;-47
2021/03/16 02:47:35;;;;;;;9.90;4.10;;;4.30;99.90;;;;;;5092179;28;20386;-48
2021/03/16 02:50:01;;;;;;;9.93;3.50;;;4.20;99.90;;;;;;5091121;28;20396;-51
2021/03/16 02:52:28;;;;;;;6.65;3.20;;;4.10;99.90;;;;;;5092109;28;20482;-48
2021/03/16 02:54:55;;;;;;;10.35;3.75;;;4.10;99.90;;;;;;5091579;28;20406;-48
2021/03/16 02:57:23;;;;;;;10.45;3.85;;;4.10;99.90;;;;;;5090281;28;20394;-48
2021/03/16 02:59:52;;;;;;;11.02;3.88;;;4.30;99.90;;;;;;5092545;28;20394;-48
2021/03/16 03:02:19;;;;;;;6.57;3.40;;;4.10;99.90;;;;;;5089984;28;20959;-48
2021/03/16 03:04:47;;;;;;;7.30;3.60;;;4.00;99.90;;;;;;5091827;28;20418;-47
2021/03/16 03:07:14;;;;;;;7.63;3.33;;;4.00;99.90;;;;;;5091801;28;20463;-48
2021/03/16 03:09:40;;;;;;;10.00;3.70;;;4.10;99.90;;;;;;5091540;28;20885;-47
2021/03/16 03:12:09;;;;;;;9.35;3.05;;;4.10;99.90;;;;;;5090500;28;20444;-47
2021/03/16 03:14:37;;;;;;;6.13;3.10;;;4.10;99.90;;;;;;5090845;28;20439;-48
2021/03/16 03:17:04;;;;;;;10.23;3.30;;;4.10;99.90;;;;;;5091546;28;20382;-47
2021/03/16 03:19:31;;;;;;;9.60;3.10;;;4.00;99.90;;;;;;5090572;28;20428;-48
2021/03/16 03:22:03;;;;;;;8.95;3.13;;;4.10;99.90;;;;;;5092344;28;20385;-50
2021/03/16 03:24:33;;;;;;;9.43;2.90;;;4.20;99.90;;;;;;5092073;28;20405;-47
2021/03/16 03:27:07;;;;;;;7.95;2.67;;;6.50;99.90;;;;;;5090423;28;20398;-53
2021/03/16 03:29:34;;;;;;;6.63;2.70;;;4.20;99.90;;;;;;5090405;28;20402;-48
2021/03/16 03:32:03;;;;;;;10.40;2.70;;;4.20;99.90;;;;;;5090808;28;20382;-52
2021/03/16 03:34:31;;;;;;;9.15;3.03;;;4.30;99.90;;;;;;5090408;28;20421;-48
2021/03/16 03:37:00;;;;;;;8.40;2.92;;;4.20;99.90;;;;;;5091558;28;20374;-47
2021/03/16 03:39:27;;;;;;;5.93;2.90;;;6.20;99.90;;;;;;5091096;28;20797;-47
2021/03/16 03:41:54;;;;;;;8.33;2.80;;;4.30;99.90;;;;;;5090486;28;20503;-48
2021/03/16 03:44:21;;;;;;;11.10;3.30;;;4.40;99.90;;;;;;5090758;28;20405;-48
2021/03/16 03:46:48;;;;;;;10.98;3.30;;;4.20;99.90;;;;;;5091831;28;20377;-48
2021/03/16 03:49:16;;;;;;;9.85;3.22;;;4.20;99.90;;;;;;5089639;28;20888;-48
2021/03/16 03:51:43;;;;;;;9.40;2.92;;;5.70;99.90;;;;;;5091435;28;20402;-48
2021/03/16 03:54:10;;;;;;;8.10;3.10;;;5.90;99.90;;;;;;5089186;28;20409;-48
2021/03/16 03:56:37;;;;;;;11.40;3.20;;;4.20;99.90;;;;;;5091696;28;20398;-48
2021/03/16 03:59:04;;;;;;;8.85;3.20;;;4.20;99.90;;;;;;5091002;28;20376;-48
2021/03/16 04:01:31;;;;;;;8.00;2.80;;;4.20;99.90;;;;;;5089962;28;20397;-48
2021/03/16 04:03:57;;;;;;;8.45;2.38;;;4.20;99.90;;;;;;5090883;28;20935;-48
2021/03/16 04:06:27;;;;;;;6.10;2.63;;;4.30;99.90;;;;;;5089224;28;20483;-48
2021/03/16 04:08:54;;;;;;;9.45;2.85;;;4.10;99.90;;;;;;5090915;28;20380;-48
2021/03/16 04:11:22;;;;;;;6.35;2.60;;;5.30;99.90;;;;;;5089269;28;20416;-49
2021/03/16 04:13:51;;;;;;;10.30;2.55;;;4.10;99.90;;;;;;5090583;28;20382;-48
2021/03/16 04:16:18;;;;;;;11.48;3.20;;;5.40;99.90;;;;;;5084070;28;20379;-49
2021/03/16 04:18:45;;;;;;;11.25;3.20;;;4.90;99.90;;;;;;5082992;28;20427;-49
2021/03/16 04:21:13;;;;;;;9.85;3.50;;;4.60;99.90;;;;;;5086092;28;20862;-49
2021/03/16 04:23:39;;;;;;;9.80;3.60;;;5.00;99.90;;;;;;5083033;28;20382;-48
2021/03/16 04:26:04;;;;;;;11.85;3.67;;;4.20;99.90;;;;;;5087473;28;20498;-49
2021/03/16 04:28:30;;;;;;;10.50;2.70;;;4.30;99.90;;;;;;5083788;28;20390;-49
2021/03/16 04:30:56;;;;;;;11.82;3.20;;;5.70;99.90;;;;;;5088304;28;20484;-48
2021/03/16 04:33:22;;;;;;;8.80;3.15;;;4.10;99.90;;;;;;5087078;28;20386;-49
2021/03/16 04:35:48;;;;;;;7.03;3.25;;;4.10;99.90;;;;;;5085499;28;20402;-48
2021/03/16 04:38:14;;;;;;;9.10;3.70;;;4.10;99.90;;;;;;5077360;28;20512;-48
2021/03/16 04:40:41;;;;;;;8.93;3.00;;;4.10;99.90;;;;;;5090455;28;20465;-49
2021/03/16 04:43:07;;;;;;;7.53;3.03;;;4.10;99.90;;;;;;5088534;28;20398;-48
2021/03/16 04:45:33;;;;;;;10.93;3.23;;;4.00;99.90;;;;;;5089900;28;20401;-48
2021/03/16 04:47:59;;;;;;;10.40;2.83;;;4.20;99.90;;;;;;5089429;28;20910;-54
2021/03/16 04:50:25;;;;;;;7.80;2.40;;;4.00;99.90;;;;;;5089880;28;20378;-48
2021/03/16 04:52:51;;;;;;;12.07;3.60;;;3.90;99.90;;;;;;5089606;28;20473;-49
2021/03/16 04:55:16;;;;;;;11.65;3.20;;;3.90;99.90;;;;;;5088580;28;20479;-49
2021/03/16 04:57:42;;;;;;;12.63;3.00;;;5.50;99.90;;;;;;5089502;28;20394;-49
2021/03/16 05:00:09;;;;;;;8.47;3.30;;;3.90;99.90;;;;;;5088873;28;21247;-48
2021/03/16 05:02:35;;;;;;;7.95;3.47;;;3.90;99.90;;;;;;5085131;28;20401;-49
2021/03/16 05:05:00;;;;;;;9.43;3.00;;;5.50;99.90;;;;;;5089279;28;20440;-54
2021/03/16 05:07:26;;;;;;;10.77;3.10;;;3.80;99.90;;;;;;5088738;28;20727;-50
2021/03/16 05:09:51;;;;;;;8.10;2.47;;;3.90;99.90;;;;;;5089913;28;20521;-49
2021/03/16 05:12:17;;;;;;;9.80;2.85;;;3.90;99.90;;;;;;5080435;28;20811;-49
2021/03/16 05:14:44;;;;;;;9.90;2.20;;;3.90;99.90;;;;;;5086258;28;20389;-50
2021/03/16 05:17:10;;;;;;;10.00;2.60;;;4.00;99.90;;;;;;5085762;28;20398;-49
2021/03/16 05:19:36;;;;;;;9.55;2.60;;;4.00;99.90;;;;;;5081988;28;20863;-48
2021/03/16 05:22:01;;;;;;;10.02;2.20;;;5.00;99.90;;;;;;5076014;28;20400;-55
2021/03/16 05:24:27;;;;;;;6.70;2.25;;;4.00;99.90;;;;;;5083727;28;20414;-48
2021/03/16 05:26:53;;;;;;;8.03;2.30;;;4.10;99.90;;;;;;5078578;28;20411;-49
2021/03/16 05:29:18;;;;;;;7.22;2.08;;;5.80;99.90;;;;;;5080924;28;20408;-50
2021/03/16 05:31:44;;;;;;;7.20;2.65;;;4.10;99.90;;;;;;5088086;28;20855;-49
2021/03/16 05:34:10;;;;;;;12.10;2.90;;;6.50;99.90;;;;;;5064711;28;20464;-48
2021/03/16 05:36:35;;;;;;;10.02;2.55;;;4.10;99.90;;;;;;5080113;28;20492;-50
2021/03/16 05:39:01;;;;;;;8.97;2.80;;;4.10;99.90;;;;;;5088242;28;20386;-54
2021/03/16 05:41:29;;;;;;;6.13;2.50;;;4.10;99.90;;;;;;5088135;28;20481;-49
2021/03/16 05:43:55;;;;;;;10.57;2.80;;;5.30;99.90;;;;;;5089527;28;20377;-48
2021/03/16 05:46:21;;;;;;;8.57;2.33;;;4.10;99.90;;;;;;5087754;28;20393;-48
2021/03/16 05:48:51;;;;;;;7.82;2.80;;;4.10;99.90;;;;;;5089064;28;20374;-48
2021/03/16 05:51:17;;;;;;;7.82;2.58;;;4.10;99.90;;;;;;5087400;28;20405;-48
2021/03/16 05:53:48;;;;;;;9.98;2.53;;;4.10;99.90;;;;;;5089051;28;20387;-48
2021/03/16 05:56:14;;;;;;;10.40;2.80;;;5.00;99.90;;;;;;5087364;28;20412;-48
2021/03/16 05:58:39;;;;;;;6.10;2.20;;;4.10;99.90;;;;;;5084922;28;20422;-48
2021/03/16 06:01:05;;;;;;;9.43;2.85;;;4.00;99.90;;;;;;5075730;28;20474;-50
2021/03/16 06:03:31;;;;;;;8.90;2.70;;;4.10;99.90;;;;;;5081737;28;20417;-49
2021/03/16 06:05:56;;;;;;;8.97;3.90;;;4.00;99.90;;;;;;5083347;28;20852;-49
2021/03/16 06:08:22;;;;;;;8.43;3.00;;;6.20;99.90;;;;;;5073414;28;21174;-50
2021/03/16 06:10:48;;;;;;;6.77;2.70;;;4.00;99.90;;;;;;5084174;28;20535;-51
2021/03/16 06:13:15;;;;;;;10.73;2.70;;;4.70;99.90;;;;;;5074992;28;20383;-48
2021/03/16 06:15:42;;;;;;;11.23;2.90;;;4.10;99.90;;;;;;5079750;28;20380;-48
2021/03/16 06:18:11;;;;;;;11.20;2.70;;;4.10;99.90;;;;;;5081793;28;20398;-49
2021/03/16 06:20:37;;;;;;;6.43;2.60;;;4.00;99.90;;;;;;5084458;28;20394;-50
2021/03/16 06:23:07;;;;;;;9.00;3.00;;;4.00;99.90;;;;;;5082561;28;20398;-54
2021/03/16 06:25:37;;;;;;;5.35;2.53;;;4.60;99.90;;;;;;5069286;28;20411;-48
2021/03/16 06:28:05;;;;;;;12.38;3.60;;;4.10;99.90;;;;;;5081552;28;20402;-54
2021/03/16 06:30:32;;;;;;;9.55;2.38;;;4.10;99.90;;;;;;5089086;28;20374;-48
2021/03/16 06:32:58;;;;;;;13.32;3.22;;;4.10;99.90;;;;;;5089118;28;20429;-49
2021/03/16 06:35:24;;;;;;;10.30;2.90;;;4.10;99.90;;;;;;5068844;28;20422;-48
2021/03/16 06:38:01;;;;;;;8.35;2.47;;;4.00;99.90;;;;;;5092395;28;20389;-48
2021/03/16 06:40:33;;;;;;;9.90;3.25;;;4.00;99.90;;;;;;5091211;28;20422;-48
2021/03/16 06:43:07;;;;;;;12.13;3.70;;;4.00;99.90;;;;;;5092569;28;20398;-49
2021/03/16 06:45:35;;;;;;;7.65;3.35;;;4.20;99.90;;;;;;5092133;28;20463;-48
2021/03/16 06:48:13;;;;;;;12.48;3.28;;;4.20;99.90;;;;;;5092821;28;20378;-51
2021/03/16 06:50:39;;;;;;;9.13;2.30;;;4.20;99.90;;;;;;5092735;28;20385;-49
2021/03/16 06:53:05;;;;;;;9.03;2.70;;;4.20;99.90;;;;;;5090840;28;20370;-51
2021/03/16 06:55:30;;;;;;;8.53;3.20;;;4.80;99.90;;;;;;5079340;28;20405;-48
2021/03/16 06:58:09;;;;;;;11.63;3.22;;;4.20;99.90;;;;;;5086575;28;20852;-48
2021/03/16 07:00:34;;;;;;;6.90;3.08;;;4.20;99.90;;;;;;5073374;28;20394;-48
2021/03/16 07:03:11;;;;;;;6.55;2.75;;;4.20;99.90;;;;;;5074833;28;20790;-48
2021/03/16 07:05:37;;;;;;;11.65;3.50;;;4.20;99.90;;;;;;5090739;28;20425;-48
2021/03/16 07:08:06;;;;;;;9.57;3.17;;;4.20;99.90;;;;;;5091799;28;20382;-54
2021/03/16 07:10:35;;;;;;;9.32;3.33;;;4.20;99.90;;;;;;5092133;28;20385;-48
2021/03/16 07:13:02;;;;;;;10.02;3.30;;;4.10;99.90;;;;;;5077123;28;20850;-53
2021/03/16 07:15:29;;;;;;;10.65;3.20;;;4.00;99.90;;;;;;5071299;28;20411;-49
2021/03/16 07:17:57;;;;;;;9.23;3.90;;;4.10;99.90;;;;;;5072116;28;20433;-49
2021/03/16 07:20:27;;;;;;;9.30;3.20;;;4.10;99.90;;;;;;5053205;28;20391;-48
2021/03/16 07:22:56;;;;;;;10.55;3.40;;;4.20;99.90;;;;;;5071626;28;20367;-49
2021/03/16 07:25:22;;;;;;;11.70;3.40;;;4.30;99.90;;;;;;5070711;28;21101;-49
2021/03/16 07:27:49;;;;;;;10.90;3.78;;;4.40;99.90;;;;;;5071942;28;20384;-49
2021/03/16 07:30:16;;;;;;;9.60;3.70;;;4.60;99.90;;;;;;5087142;28;20385;-49
2021/03/16 07:32:43;;;;;;;9.40;3.85;;;4.70;99.90;;;;;;5091908;28;20424;-48
2021/03/16 07:35:09;;;;;;;10.53;3.80;;;5.80;99.90;;;;;;5091188;28;20378;-49
2021/03/16 07:37:36;;;;;;;9.85;3.58;;;4.80;99.90;;;;;;5091354;28;20392;-48
2021/03/16 07:40:06;;;;;;;9.20;3.53;;;4.90;99.90;;;;;;5091425;28;20375;-50
2021/03/16 07:42:31;;;;;;;10.55;3.95;;;5.00;99.90;;;;;;5091910;28;20405;-48
2021/03/16 07:44:57;;;;;;;9.80;3.80;;;4.70;99.90;;;;;;5091478;28;20460;-49
2021/03/16 07:47:36;;;;;;;9.90;3.60;;;5.50;99.90;;;;;;5090174;28;20387;-48
2021/03/16 07:50:09;;;;;;;9.10;3.08;;;4.70;99.90;;;;;;5091187;28;20374;-48
2021/03/16 07:52:45;;;;;;;11.52;3.50;;;4.70;99.90;;;;;;5091389;28;20689;-49
2021/03/16 07:55:23;;;;;;;8.82;3.50;;;5.70;99.90;;;;;;5090277;28;20382;-48
2021/03/16 07:57:48;;;;;;;8.55;3.30;;;4.70;99.90;;;;;;5091395;28;20378;-49
2021/03/16 08:00:14;;;;;;;13.30;4.17;;;4.80;99.90;;;;;;5090015;28;20867;-49
2021/03/16 08:02:44;;;;;;;8.05;2.83;;;4.90;99.90;;;;;;5089053;28;20402;-48
2021/03/16 08:05:17;;;;;;;7.45;2.95;;;4.90;99.90;;;;;;5070295;28;20423;-48
2021/03/16 08:07:42;;;;;;;9.77;2.95;;;4.90;99.90;;;;;;5070848;28;20783;-48
2021/03/16 08:10:10;;;;;;;7.10;3.07;;;5.00;99.90;;;;;;5069952;28;20388;-49
2021/03/16 08:12:35;;;;;;;11.00;4.18;;;5.00;99.90;;;;;;5070685;28;20453;-48
2021/03/16 08:15:12;;;;;;;10.87;3.20;;;5.20;99.90;;;;;;5070820;28;20414;-48
2021/03/16 08:17:37;;;;;;;8.50;2.60;;;4.80;99.90;;;;;;5070754;28;20406;-48
2021/03/16 08:20:04;;;;;;;10.57;2.70;;;4.80;99.90;;;;;;5052524;28;20861;-54
2021/03/16 08:22:31;;;;;;;10.77;3.30;;;4.90;99.90;;;;;;5070376;28;20387;-49
2021/03/16 08:25:05;;;;;;;7.78;3.10;;;5.00;99.90;;;;;;5070602;28;20407;-49
2021/03/16 08:27:33;;;;;;;8.82;3.55;;;5.90;99.90;;;;;;5069868;28;20729;-48
2021/03/16 08:29:59;;;;;;;9.68;3.00;;;5.00;99.90;;;;;;5070735;28;20385;-48
2021/03/16 08:32:25;;;;;;;8.98;3.42;;;5.10;99.90;;;;;;5051419;28;20419;-48
2021/03/16 08:34:54;;;;;;;8.70;3.10;;;5.20;99.90;;;;;;5070048;28;20402;-48
2021/03/16 08:37:23;;;;;;;10.35;3.63;;;5.10;99.90;;;;;;5069769;28;20376;-48
2021/03/16 08:39:51;;;;;;;8.02;2.95;;;5.20;99.90;;;;;;5070643;28;20391;-48
2021/03/16 08:42:18;;;;;;;8.88;2.40;;;5.20;99.90;;;;;;5069397;28;20879;-50
2021/03/16 08:44:45;;;;;;;7.40;3.10;;;5.10;99.90;;;;;;5085839;28;20551;-48
2021/03/16 08:47:13;;;;;;;8.00;2.60;;;5.20;99.90;;;;;;5089270;28;20476;-49
2021/03/16 08:49:41;;;;;;;9.18;3.10;;;5.30;99.90;;;;;;5089820;28;20404;-46
2021/03/16 08:52:23;;;;;;;9.60;3.40;;;5.30;99.90;;;;;;5088794;28;20405;-54
2021/03/16 08:54:55;;;;;;;10.67;3.00;;;5.30;99.90;;;;;;5088819;28;20455;-51
2021/03/16 08:57:25;;;;;;;7.45;2.95;;;5.40;99.90;;;;;;5089160;28;20400;-48
2021/03/16 08:59:52;;;;;;;10.10;3.38;;;5.70;99.90;;;;;;5088896;28;20393;-48
2021/03/16 09:02:21;;;;;;;10.80;3.75;;;5.30;99.90;;;;;;5088873;28;20896;-49
2021/03/16 09:04:47;;;;;;;9.90;3.50;;;5.70;99.90;;;;;;5082649;28;20772;-48
2021/03/16 09:07:24;;;;;;;9.50;3.20;;;5.50;99.90;;;;;;5089036;28;20473;-50
2021/03/16 09:09:51;;;;;;;10.02;3.58;;;5.40;99.90;;;;;;5087475;28;20463;-49
2021/03/16 09:12:27;;;;;;;7.03;3.38;;;5.40;99.90;;;;;;5089480;28;20858;-46
2021/03/16 09:14:53;;;;;;;8.10;3.50;;;5.30;99.90;;;;;;5071005;28;20433;-48
2021/03/16 09:17:18;;;;;;;8.13;2.88;;;5.20;99.90;;;;;;5088860;28;20467;-49
2021/03/16 09:19:44;;;;;;;10.77;3.80;;;5.60;99.90;;;;;;5088684;28;20390;-48
2021/03/16 09:22:11;;;;;;;8.40;2.60;;;5.60;99.90;;;;;;5089272;28;20467;-48
2021/03/16 09:24:43;;;;;;;6.70;2.83;;;5.40;99.90;;;;;;5089509;28;20496;-48
2021/03/16 09:27:08;;;;;;;7.80;2.80;;;5.30;99.90;;;;;;5087714;28;20394;-54
2021/03/16 09:29:36;;;;;;;6.00;2.70;;;5.30;99.90;;;;;;5089387;28;20373;-49
2021/03/16 09:32:06;;;;;;;5.47;2.40;;;5.20;99.90;;;;;;5088987;28;20874;-48
2021/03/16 09:34:34;;;;;;;7.50;2.43;;;5.30;99.90;;;;;;5088567;28;20896;-48
2021/03/16 09:37:07;;;;;;;6.45;3.00;;;5.10;99.90;;;;;;5089525;28;20374;-50
2021/03/16 09:39:33;;;;;;;7.47;3.30;;;5.00;99.90;;;;;;5088612;28;20390;-48
2021/03/16 09:42:00;;;;;;;8.88;3.42;;;5.00;99.90;;;;;;5089335;28;20801;-48
2021/03/16 09:44:36;;;;;;;10.40;3.73;;;5.10;99.90;;;;;;5087536;28;20406;-48
2021/03/16 09:47:03;;;;;;;10.48;3.30;;;5.10;99.90;;;;;;5089382;28;20394;-48
2021/03/16 09:49:40;;;;;;;11.60;3.65;;;5.00;99.90;;;;;;5089712;28;20402;-48
2021/03/16 09:52:12;;;;;;;9.00;4.20;;;5.10;99.90;;;;;;5087925;28;20409;-54
2021/03/16 09:54:40;;;;;;;8.00;3.80;;;4.90;99.90;;;;;;5088301;28;20857;-48
2021/03/16 09:57:32;;;;;;;11.55;4.05;;;5.00;99.90;;;;;;5088797;28;20396;-50
2021/03/16 09:59:59;;;;;;;9.63;4.10;;;5.20;99.90;;;;;;5088104;28;20455;-48
2021/03/16 10:02:35;;;;;;;11.43;3.78;;;5.40;99.90;;;;;;5087529;28;20459;-49
2021/03/16 10:05:13;;;;;;;11.73;4.27;;;5.30;99.90;;;;;;5088001;28;20444;-48
2021/03/16 10:07:39;;;;;;;8.60;3.80;;;5.40;99.90;;;;;;5088179;28;20386;-50
2021/03/16 10:10:18;;;;;;;11.37;3.90;;;5.40;99.90;;;;;;5089399;28;20498;-54
2021/03/16 10:13:02;;;;;;;13.30;4.18;;;5.60;99.90;;;;;;5092940;28;20378;-48
2021/03/16 10:15:29;;;;;;;9.23;4.30;;;5.70;99.90;;;;;;5092503;28;20460;-48
2021/03/16 10:17:58;;;;;;;9.57;3.90;;;5.60;99.90;;;;;;5075323;28;20428;-48
2021/03/16 10:20:30;;;;;;;10.13;4.13;;;5.80;99.90;;;;;;5092165;28;20464;-48
2021/03/16 10:23:05;;;;;;;10.40;3.83;;;5.90;99.90;;;;;;5093336;28;20389;-48
2021/03/16 10:25:33;;;;;;;11.65;4.47;;;6.10;99.90;;;;;;5092451;28;20422;-48
2021/03/16 10:28:00;;;;;;;10.18;4.07;;;6.30;99.90;;;;;;5093697;28;20390;-48
2021/03/16 10:30:44;;;;;;;13.30;3.70;;;6.30;99.90;;;;;;5092132;28;20975;-48
2021/03/16 10:33:12;;;;;;;10.52;3.85;;;6.40;99.90;;;;;;5087500;28;20366;-49
2021/03/16 10:35:42;;;;;;;8.93;3.43;;;6.50;99.90;;;;;;5092952;28;20388;-49
2021/03/16 10:38:08;;;;;;;11.40;3.63;;;6.70;99.90;;;;;;5092623;28;20405;-48
2021/03/16 10:40:36;;;;;;;7.72;3.40;;;6.70;99.90;;;;;;5093265;28;20370;-47
2021/03/16 10:43:02;;;;;;;11.98;3.67;;;6.70;99.90;;;;;;5092818;28;20366;-46
2021/03/16 10:45:28;;;;;;;6.78;3.70;;;7.10;99.90;;;;;;5091815;28;20394;-49
2021/03/16 10:47:54;;;;;;;9.67;4.10;;;7.10;99.90;;;;;;5092577;28;20390;-47
2021/03/16 10:50:21;;;;;;;8.88;3.80;;;7.40;99.90;;;;;;5092156;28;20735;-49
2021/03/16 10:52:47;;;;;;;10.43;3.03;;;7.70;99.90;;;;;;5092573;28;20447;-51
2021/03/16 10:55:13;;;;;;;11.20;4.20;;;7.50;99.90;;;;;;5092079;28;20866;-47
2021/03/16 10:57:39;;;;;;;11.55;4.00;;;7.30;99.90;;;;;;5092393;28;20382;-47
2021/03/16 11:00:06;;;;;;;11.48;3.60;;;7.60;99.90;;;;;;5092523;28;20469;-47
2021/03/16 11:02:32;;;;;;;13.05;3.70;;;7.60;99.90;;;;;;5090374;28;20378;-47
2021/03/16 11:04:58;;;;;;;10.40;3.80;;;7.80;99.90;;;;;;5071705;28;20739;-49
2021/03/16 11:07:24;;;;;;;10.88;3.47;;;7.80;99.90;;;;;;5071637;28;20394;-47
2021/03/16 11:09:49;;;;;;;13.97;3.70;;;6.60;99.90;;;;;;5072683;28;20376;-47
2021/03/16 11:12:17;;;;;;;10.70;3.60;;;7.40;99.90;;;;;;5071088;28;20380;-47
2021/03/16 11:14:43;;;;;;;9.55;3.30;;;7.40;99.90;;;;;;5071653;28;20512;-47
2021/03/16 11:17:09;;;;;;;8.77;3.60;;;6.90;99.90;;;;;;5071115;28;20391;-51
2021/03/16 11:19:35;;;;;;;10.87;3.63;;;7.00;99.90;;;;;;5071211;28;20384;-46
2021/03/16 11:22:00;;;;;;;9.25;3.20;;;7.00;99.90;;;;;;5071631;28;21020;-47
2021/03/16 11:24:26;;;;;;;11.10;3.80;;;6.80;99.90;;;;;;5069890;28;21008;-47
2021/03/16 11:26:51;;;;;;;9.45;3.42;;;6.80;99.90;;;;;;5071643;28;20407;-47
2021/03/16 11:29:17;;;;;;;8.70;3.17;;;6.80;99.90;;;;;;5071165;28;20404;-46
2021/03/16 11:31:43;;;;;;;8.00;2.90;;;6.90;99.90;;;;;;5071205;28;20425;-47
2021/03/16 11:34:08;;;;;;;11.20;3.47;;;6.60;99.90;;;;;;5071248;28;20383;-53
2021/03/16 11:36:34;;;;;;;8.40;2.67;;;6.20;99.90;;;;;;5071420;28;20386;-48
2021/03/16 11:39:00;;;;;;;7.57;3.10;;;6.10;99.90;;;;;;5071368;28;20391;-48
2021/03/16 11:41:26;;;;;;;9.95;3.35;;;5.70;99.90;;;;;;5070685;28;20729;-48
2021/03/16 11:43:51;;;;;;;10.53;2.70;;;5.80;99.90;;;;;;5071398;28;20760;-49
2021/03/16 11:46:17;;;;;;;8.85;3.38;;;5.90;99.90;;;;;;5070464;28;20510;-48
2021/03/16 11:48:43;;;;;;;9.57;3.35;;;6.20;99.90;;;;;;5071247;28;20372;-48
2021/03/16 11:51:09;;;;;;;9.17;2.70;;;6.20;99.90;;;;;;5071289;28;20384;-53
2021/03/16 11:53:35;;;;;;;9.43;3.10;;;6.30;99.90;;;;;;5070470;28;20387;-48
2021/03/16 11:56:00;;;;;;;7.47;3.03;;;6.30;99.90;;;;;;5071450;28;20392;-48
2021/03/16 11:58:26;;;;;;;10.00;3.20;;;6.40;99.90;;;;;;5069938;28;20431;-48
2021/03/16 12:00:53;;;;;;;8.00;2.50;;;7.50;99.90;;;;;;5071084;28;20402;-48
2021/03/16 12:03:19;;;;;;;10.82;2.80;;;6.60;99.90;;;;;;5077881;28;20399;-49
2021/03/16 12:05:45;;;;;;;9.70;3.30;;;6.80;99.90;;;;;;5091340;28;20919;-48
2021/03/16 12:08:10;;;;;;;10.67;3.70;;;7.20;99.90;;;;;;5089124;28;20424;-54
2021/03/16 12:10:36;;;;;;;10.48;3.30;;;7.30;99.90;;;;;;5089848;28;20449;-48
2021/03/16 12:13:02;;;;;;;8.63;3.00;;;7.40;99.90;;;;;;5090858;28;20918;-48
2021/03/16 12:15:28;;;;;;;9.13;3.05;;;7.10;99.90;;;;;;5090586;28;20413;-48
2021/03/16 12:17:53;;;;;;;6.70;2.57;;;7.10;99.90;;;;;;5089451;28;20425;-48
2021/03/16 12:20:19;;;;;;;9.43;2.78;;;6.90;99.90;;;;;;5090068;28;20382;-48
2021/03/16 12:22:45;;;;;;;11.05;2.67;;;6.80;99.90;;;;;;5089721;28;20396;-48
2021/03/16 12:25:12;;;;;;;7.17;2.40;;;6.70;99.90;;;;;;5090610;28;20798;-54
2021/03/16 12:27:38;;;;;;;7.97;3.20;;;6.70;99.90;;;;;;5091079;28;20435;-49
2021/03/16 12:30:05;;;;;;;11.43;3.00;;;6.60;99.90;;;;;;5089449;28;20398;-48
2021/03/16 12:32:31;;;;;;;9.27;2.50;;;6.70;99.90;;;;;;5089840;28;20376;-48
2021/03/16 12:34:56;;;;;;;10.20;2.87;;;6.70;99.90;;;;;;5089198;28;20390;-48
2021/03/16 12:37:22;;;;;;;6.40;2.10;;;6.80;99.90;;;;;;5089770;28;20382;-48
2021/03/16 12:39:48;;;;;;;11.70;2.90;;;7.00;99.90;;;;;;5091018;28;20465;-48
2021/03/16 12:42:13;;;;;;;9.53;2.73;;;7.20;99.90;;;;;;5090689;28;20389;-49
2021/03/16 12:44:39;;;;;;;7.32;2.70;;;7.40;99.90;;;;;;5090455;28;20631;-49
2021/03/16 12:47:05;;;;;;;7.30;2.60;;;7.40;99.90;;;;;;5090707;28;20473;-49
2021/03/16 12:49:33;;;;;;;6.82;2.50;;;7.20;99.90;;;;;;5090004;28;20900;-49
2021/03/16 12:51:58;;;;;;;6.03;2.60;;;7.10;99.90;;;;;;5090416;28;21198;-48
2021/03/16 12:54:24;;;;;;;9.55;2.55;;;7.20;99.90;;;;;;5089300;28;20938;-51
2021/03/16 12:56:53;;;;;;;8.05;3.00;;;7.20;99.90;;;;;;5090316;28;20397;-48